Time;durP1;ratioP1;P1;durP2;ratioP2;P2;SDS_P1;SDS_P2;PMS_P1;PMS_P2;Temp;Humidity;BMP_temperature;BMP_pressure;BME280_temperature;BME280_humidity;BME280_pressure;Samples;Min_cycle;Max_cycle;Signal;HPM_P1;HPM_P2
2023/04/26 00:02:10;;;;;;;4.13;2.30;;;5.80;99.90;;;;;;6307105;22;20422;-78
2023/04/26 00:04:37;;;;;;;7.15;3.00;;;5.70;99.90;;;;;;6335073;22;20019;-78
2023/04/26 00:07:02;;;;;;;5.68;2.38;;;5.60;99.90;;;;;;6334674;22;20015;-79
2023/04/26 00:09:28;;;;;;;6.80;2.38;;;5.60;99.90;;;;;;6307160;22;20342;-78
2023/04/26 00:11:54;;;;;;;7.05;3.20;;;5.60;99.90;;;;;;6307169;22;20481;-78
2023/04/26 00:14:20;;;;;;;6.50;2.50;;;5.60;99.90;;;;;;6335043;22;20526;-78
2023/04/26 00:16:46;;;;;;;4.32;2.45;;;5.60;99.90;;;;;;6334611;22;20018;-78
2023/04/26 00:19:12;;;;;;;7.15;2.72;;;5.50;99.90;;;;;;6307137;22;20026;-78
2023/04/26 00:21:38;;;;;;;8.23;2.58;;;5.50;99.90;;;;;;6307042;22;20026;-79
2023/04/26 00:24:05;;;;;;;6.38;2.50;;;5.50;99.90;;;;;;6307392;22;20594;-78
2023/04/26 00:26:30;;;;;;;8.85;2.65;;;5.50;99.90;;;;;;6335117;22;20101;-78
2023/04/26 00:28:56;;;;;;;4.90;2.78;;;5.50;99.90;;;;;;6305957;22;20026;-78
2023/04/26 00:31:22;;;;;;;7.18;2.42;;;5.50;99.90;;;;;;6307420;22;20022;-77
2023/04/26 00:33:48;;;;;;;7.60;2.30;;;5.50;99.90;;;;;;6307344;22;20029;-78
2023/04/26 00:36:15;;;;;;;13.23;2.67;;;5.60;99.90;;;;;;6306871;22;20023;-78
2023/04/26 00:38:41;;;;;;;6.93;2.55;;;5.50;99.90;;;;;;6307162;22;20789;-78
2023/04/26 00:41:07;;;;;;;5.43;2.55;;;5.50;99.90;;;;;;6306828;22;20019;-78
2023/04/26 00:43:33;;;;;;;6.53;2.47;;;5.50;99.90;;;;;;6306582;22;20018;-77
2023/04/26 00:45:59;;;;;;;4.88;3.40;;;5.50;99.90;;;;;;6307818;22;20360;-78
2023/04/26 00:48:25;;;;;;;4.80;2.78;;;5.60;99.90;;;;;;6281358;22;20022;-78
2023/04/26 00:50:51;;;;;;;12.90;2.50;;;5.60;99.90;;;;;;6306991;22;20044;-78
2023/04/26 00:53:17;;;;;;;2.30;2.10;;;5.60;99.90;;;;;;6306818;22;20030;-78
2023/04/26 00:55:44;;;;;;;5.47;2.50;;;5.60;99.90;;;;;;6306791;22;20015;-78
2023/04/26 00:58:10;;;;;;;7.63;2.78;;;5.60;99.90;;;;;;6334311;22;20010;-78
2023/04/26 01:00:35;;;;;;;4.95;2.15;;;5.70;99.90;;;;;;6306509;22;20037;-78
2023/04/26 01:03:02;;;;;;;5.75;2.60;;;5.60;99.90;;;;;;6306479;22;20700;-78
2023/04/26 01:05:28;;;;;;;7.00;3.03;;;5.70;99.90;;;;;;6306803;22;20371;-78
2023/04/26 01:07:54;;;;;;;7.57;2.55;;;5.70;99.90;;;;;;6334463;22;20149;-78
2023/04/26 01:10:19;;;;;;;8.02;2.55;;;5.80;99.90;;;;;;6306489;22;20381;-78
2023/04/26 01:12:46;;;;;;;6.57;2.20;;;5.80;99.90;;;;;;6334366;22;20022;-78
2023/04/26 01:15:12;;;;;;;8.45;3.90;;;5.80;99.90;;;;;;6306630;22;20022;-78
2023/04/26 01:17:38;;;;;;;4.55;2.45;;;5.80;99.90;;;;;;6334617;22;20015;-78
2023/04/26 01:20:07;;;;;;;6.43;2.35;;;5.80;99.90;;;;;;6334405;22;20019;-79
2023/04/26 01:22:33;;;;;;;9.35;2.60;;;5.80;99.90;;;;;;6333888;22;20426;-79
2023/04/26 01:25:00;;;;;;;4.80;2.35;;;5.80;99.90;;;;;;6305642;22;20027;-78
2023/04/26 01:27:26;;;;;;;5.68;2.50;;;5.90;99.90;;;;;;6333977;22;20098;-78
2023/04/26 01:29:52;;;;;;;3.78;2.50;;;5.90;99.90;;;;;;6334246;22;20042;-78
2023/04/26 01:32:18;;;;;;;8.00;1.90;;;5.80;99.90;;;;;;6280898;22;20030;-78
2023/04/26 01:34:44;;;;;;;5.53;2.35;;;5.90;99.90;;;;;;6306429;22;20458;-78
2023/04/26 01:37:10;;;;;;;6.50;2.50;;;5.80;99.90;;;;;;6306456;22;20026;-78
2023/04/26 01:39:35;;;;;;;7.32;2.92;;;5.80;99.90;;;;;;6306301;22;20011;-79
2023/04/26 01:42:03;;;;;;;6.10;2.80;;;5.80;99.90;;;;;;6333657;22;20468;-78
2023/04/26 01:44:29;;;;;;;6.65;2.85;;;5.80;99.90;;;;;;6306121;22;20089;-78
2023/04/26 01:46:55;;;;;;;5.13;2.47;;;5.80;99.90;;;;;;6306147;22;20019;-79
2023/04/26 01:49:21;;;;;;;11.30;2.72;;;5.70;99.90;;;;;;6334158;22;20105;-79
2023/04/26 01:51:46;;;;;;;3.35;2.30;;;5.70;99.90;;;;;;6280565;22;20025;-78
2023/04/26 01:54:12;;;;;;;4.50;2.33;;;5.70;99.90;;;;;;6306155;22;20017;-78
2023/04/26 01:56:38;;;;;;;7.53;2.92;;;5.70;99.90;;;;;;6304745;22;20026;-78
2023/04/26 01:59:03;;;;;;;7.97;2.92;;;5.70;99.90;;;;;;6305463;22;20050;-78
2023/04/26 02:01:30;;;;;;;8.65;2.53;;;5.60;99.90;;;;;;6306020;22;20346;-78
2023/04/26 02:03:55;;;;;;;6.28;2.45;;;5.60;99.90;;;;;;6306007;22;20018;-78
2023/04/26 02:06:21;;;;;;;4.03;2.25;;;5.50;99.90;;;;;;6305684;22;20037;-79
2023/04/26 02:08:48;;;;;;;6.43;2.92;;;5.50;99.90;;;;;;6306079;22;20343;-79
2023/04/26 02:11:13;;;;;;;9.88;2.80;;;5.50;99.90;;;;;;6305942;22;20027;-78
2023/04/26 02:13:39;;;;;;;7.15;3.10;;;5.50;99.90;;;;;;6306248;22;20096;-79
2023/04/26 02:16:06;;;;;;;2.85;2.30;;;5.40;99.90;;;;;;6334454;22;20015;-78
2023/04/26 02:18:32;;;;;;;9.57;2.40;;;5.40;99.90;;;;;;6279879;22;20075;-78
2023/04/26 02:20:58;;;;;;;7.18;2.40;;;5.40;99.90;;;;;;6305673;22;20027;-78
2023/04/26 02:23:23;;;;;;;7.80;2.40;;;5.40;99.90;;;;;;6306262;22;20023;-78
2023/04/26 02:25:49;;;;;;;9.75;2.95;;;5.40;99.90;;;;;;6305742;22;20105;-77
2023/04/26 02:28:15;;;;;;;3.70;2.10;;;5.40;99.90;;;;;;6305479;22;20052;-78
2023/04/26 02:30:41;;;;;;;4.70;2.53;;;5.40;99.90;;;;;;6333560;22;20029;-77
2023/04/26 02:33:08;;;;;;;5.85;2.03;;;5.50;99.90;;;;;;6306061;22;20015;-78
2023/04/26 02:35:36;;;;;;;4.15;2.50;;;5.50;99.90;;;;;;6305801;22;20056;-78
2023/04/26 02:38:02;;;;;;;8.75;2.78;;;5.50;99.90;;;;;;6305896;22;20026;-78
2023/04/26 02:40:29;;;;;;;9.35;2.63;;;5.50;99.90;;;;;;6333663;22;20616;-78
2023/04/26 02:42:55;;;;;;;3.17;2.55;;;5.50;99.90;;;;;;6305963;22;20022;-78
2023/04/26 02:45:21;;;;;;;11.90;2.83;;;5.50;99.90;;;;;;6333761;22;20440;-78
2023/04/26 02:47:47;;;;;;;7.30;2.05;;;5.60;99.90;;;;;;6334056;22;20015;-78
2023/04/26 02:50:14;;;;;;;5.15;2.45;;;5.60;99.90;;;;;;6333461;22;20011;-78
2023/04/26 02:52:39;;;;;;;6.25;2.85;;;5.60;99.90;;;;;;6333621;22;20022;-78
2023/04/26 02:55:06;;;;;;;4.07;2.20;;;5.60;99.90;;;;;;6304894;22;20029;-78
2023/04/26 02:57:32;;;;;;;5.00;2.58;;;5.50;99.90;;;;;;6332942;22;20025;-78
2023/04/26 02:59:58;;;;;;;3.25;2.25;;;5.50;99.90;;;;;;6305704;22;20015;-78
2023/04/26 03:02:24;;;;;;;4.13;2.20;;;5.50;99.90;;;;;;6305938;22;20023;-78
2023/04/26 03:04:50;;;;;;;7.40;2.22;;;5.50;99.90;;;;;;6333528;22;20019;-78
2023/04/26 03:07:17;;;;;;;6.40;2.17;;;5.50;99.90;;;;;;6305663;22;20022;-78
2023/04/26 03:09:43;;;;;;;3.95;2.40;;;5.40;99.90;;;;;;6305467;22;20436;-78
2023/04/26 03:12:08;;;;;;;6.05;2.08;;;5.40;99.90;;;;;;6305795;22;20027;-79
2023/04/26 03:14:35;;;;;;;7.28;1.98;;;5.40;99.90;;;;;;6305707;22;20029;-78
2023/04/26 03:17:01;;;;;;;2.78;1.85;;;5.40;99.90;;;;;;6305782;22;20019;-77
2023/04/26 03:19:27;;;;;;;7.90;2.60;;;5.30;99.90;;;;;;6333754;22;20011;-78
2023/04/26 03:21:54;;;;;;;11.50;2.83;;;5.30;99.90;;;;;;6333262;22;20119;-76
2023/04/26 03:24:20;;;;;;;4.57;2.75;;;5.30;99.90;;;;;;6334167;22;20026;-78
2023/04/26 03:26:46;;;;;;;6.50;2.70;;;5.20;99.90;;;;;;6306007;22;20736;-78
2023/04/26 03:29:11;;;;;;;7.95;3.42;;;5.20;99.90;;;;;;6333640;22;20015;-77
2023/04/26 03:31:37;;;;;;;4.35;2.60;;;5.20;99.90;;;;;;6307918;22;20086;-77
2023/04/26 03:34:04;;;;;;;3.20;2.42;;;5.20;99.90;;;;;;6335306;22;20041;-77
2023/04/26 03:36:30;;;;;;;6.32;2.55;;;5.10;99.90;;;;;;6335406;22;20064;-77
2023/04/26 03:38:55;;;;;;;2.90;2.38;;;5.10;99.90;;;;;;6335594;22;20015;-78
2023/04/26 03:41:22;;;;;;;3.85;2.55;;;5.10;99.90;;;;;;6307262;22;20409;-77
2023/04/26 03:43:48;;;;;;;8.90;2.60;;;5.10;99.90;;;;;;6307607;22;20093;-77
2023/04/26 03:46:13;;;;;;;4.97;2.20;;;5.00;99.90;;;;;;6335260;22;20396;-77
2023/04/26 03:48:39;;;;;;;3.53;2.40;;;5.00;99.90;;;;;;6335206;22;20014;-77
2023/04/26 03:51:05;;;;;;;4.38;2.40;;;5.00;99.90;;;;;;6306992;22;20022;-77
2023/04/26 03:53:31;;;;;;;3.60;1.92;;;4.90;99.90;;;;;;6335497;22;20022;-78
2023/04/26 03:55:57;;;;;;;7.28;2.38;;;4.90;99.90;;;;;;6335589;22;20034;-77
2023/04/26 03:58:24;;;;;;;7.97;2.78;;;4.90;99.90;;;;;;6335455;22;20027;-77
2023/04/26 04:00:50;;;;;;;6.55;2.53;;;5.00;99.90;;;;;;6307357;22;20023;-77
2023/04/26 04:03:16;;;;;;;7.13;2.88;;;4.90;99.90;;;;;;6307189;22;20065;-77
2023/04/26 04:05:42;;;;;;;5.82;2.60;;;4.80;99.90;;;;;;6335035;22;20018;-78
2023/04/26 04:08:08;;;;;;;7.57;2.35;;;4.80;99.90;;;;;;6335218;22;20472;-77
2023/04/26 04:10:33;;;;;;;4.93;2.60;;;4.80;99.90;;;;;;6307574;22;20090;-77
2023/04/26 04:12:59;;;;;;;2.70;2.35;;;4.90;99.90;;;;;;6307380;22;20506;-77
2023/04/26 04:15:25;;;;;;;4.95;2.92;;;4.80;99.90;;;;;;6307283;22;20111;-78
2023/04/26 04:17:51;;;;;;;8.77;2.80;;;4.80;99.90;;;;;;6307004;22;20022;-77
2023/04/26 04:20:17;;;;;;;4.63;2.75;;;4.80;99.90;;;;;;6307030;22;20375;-77
2023/04/26 04:22:42;;;;;;;5.93;2.30;;;4.70;99.90;;;;;;6306695;22;20027;-77
2023/04/26 04:25:12;;;;;;;6.50;2.40;;;4.70;99.90;;;;;;6307440;22;20023;-77
2023/04/26 04:27:41;;;;;;;4.88;2.72;;;4.70;99.90;;;;;;6308120;22;20470;-77
2023/04/26 04:30:07;;;;;;;6.28;2.53;;;4.70;99.90;;;;;;6307907;22;20046;-77
2023/04/26 04:32:34;;;;;;;6.38;2.30;;;4.70;99.90;;;;;;6281847;22;20023;-77
2023/04/26 04:35:00;;;;;;;5.05;2.85;;;4.70;99.90;;;;;;6307534;22;20049;-77
2023/04/26 04:37:26;;;;;;;6.95;2.50;;;4.70;99.90;;;;;;6308365;22;20708;-77
2023/04/26 04:39:52;;;;;;;7.40;2.70;;;4.70;99.90;;;;;;6307842;22;20054;-78
2023/04/26 04:42:18;;;;;;;5.25;2.72;;;4.70;99.90;;;;;;6281816;22;20750;-77
2023/04/26 04:44:45;;;;;;;9.10;3.25;;;4.80;99.90;;;;;;6335538;22;20054;-77
2023/04/26 04:47:11;;;;;;;3.67;2.60;;;4.80;99.90;;;;;;6335980;22;20092;-77
2023/04/26 04:49:37;;;;;;;4.72;2.28;;;4.80;99.90;;;;;;6307606;22;20440;-77
2023/04/26 04:52:04;;;;;;;9.70;3.03;;;4.80;99.90;;;;;;6281345;22;20030;-78
2023/04/26 04:54:29;;;;;;;5.13;2.70;;;4.80;99.90;;;;;;6334885;22;20018;-78
2023/04/26 04:56:56;;;;;;;3.85;2.53;;;4.80;99.90;;;;;;6335815;22;20025;-77
2023/04/26 04:59:22;;;;;;;12.00;3.10;;;4.80;99.90;;;;;;6309177;22;20026;-78
2023/04/26 05:01:49;;;;;;;5.15;2.95;;;4.80;99.90;;;;;;6335829;22;20406;-78
2023/04/26 05:04:14;;;;;;;3.58;2.65;;;4.80;99.90;;;;;;6334528;22;20094;-77
2023/04/26 05:06:40;;;;;;;6.03;2.72;;;4.90;99.90;;;;;;6307555;22;20053;-77
2023/04/26 05:09:06;;;;;;;3.95;2.85;;;5.10;99.90;;;;;;6335208;22;20026;-78
2023/04/26 05:11:32;;;;;;;6.25;3.38;;;5.10;99.90;;;;;;6335803;22;20015;-78
2023/04/26 05:13:58;;;;;;;5.30;2.30;;;5.10;99.90;;;;;;6307525;22;20023;-78
2023/04/26 05:16:24;;;;;;;5.80;2.40;;;5.30;99.90;;;;;;6307582;22;20414;-77
2023/04/26 05:18:49;;;;;;;3.28;2.58;;;5.40;99.90;;;;;;6334227;22;20014;-78
2023/04/26 05:21:15;;;;;;;9.07;2.85;;;5.50;99.90;;;;;;6307216;22;20026;-78
2023/04/26 05:23:41;;;;;;;5.65;3.00;;;5.60;99.90;;;;;;6307097;22;20027;-77
2023/04/26 05:26:09;;;;;;;5.28;2.92;;;5.80;99.90;;;;;;6306878;22;20029;-77
2023/04/26 05:28:35;;;;;;;4.93;2.58;;;5.90;99.90;;;;;;6307064;22;20014;-78
2023/04/26 05:31:00;;;;;;;5.57;2.67;;;6.10;99.90;;;;;;6307349;22;20389;-77
2023/04/26 05:33:29;;;;;;;11.23;2.83;;;6.10;99.90;;;;;;6306633;22;20023;-77
2023/04/26 05:35:56;;;;;;;4.40;2.55;;;6.20;99.90;;;;;;6306717;22;20080;-78
2023/04/26 05:38:23;;;;;;;7.28;2.83;;;6.30;99.90;;;;;;6306610;22;20060;-78
2023/04/26 05:40:48;;;;;;;7.05;2.90;;;6.40;99.90;;;;;;6306348;22;20027;-78
2023/04/26 05:43:14;;;;;;;4.65;2.50;;;6.50;99.90;;;;;;6306527;22;20350;-78
2023/04/26 05:45:50;;;;;;;4.95;2.50;;;6.60;99.90;;;;;;6306373;22;20010;-77
2023/04/26 05:48:15;;;;;;;3.13;2.50;;;6.70;99.90;;;;;;6306106;22;20015;-78
2023/04/26 05:50:41;;;;;;;5.80;2.92;;;6.80;99.90;;;;;;6334350;22;20342;-78
2023/04/26 05:53:07;;;;;;;4.53;2.83;;;7.00;99.90;;;;;;6334400;22;20018;-78
2023/04/26 05:55:33;;;;;;;6.63;2.47;;;6.90;99.90;;;;;;6305021;22;20014;-80
2023/04/26 05:57:58;;;;;;;4.65;2.85;;;6.80;99.90;;;;;;6305942;22;20031;-81
2023/04/26 06:00:25;;;;;;;7.88;2.70;;;6.80;99.90;;;;;;6306187;22;20019;-82
2023/04/26 06:02:50;;;;;;;6.07;2.58;;;6.70;99.90;;;;;;6306323;22;20057;-89
2023/04/26 06:05:16;;;;;;;3.17;2.70;;;6.70;99.90;;;;;;6307126;22;20315;-80
2023/04/26 06:07:43;;;;;;;6.63;2.95;;;6.80;99.90;;;;;;6306377;22;20030;-79
2023/04/26 06:10:09;;;;;;;6.60;3.05;;;6.80;99.90;;;;;;6306157;22;20068;-79
2023/04/26 06:12:35;;;;;;;4.72;2.72;;;6.80;99.90;;;;;;6306241;22;20510;-80
2023/04/26 06:15:01;;;;;;;5.45;2.50;;;6.80;99.90;;;;;;6305951;22;20061;-80
2023/04/26 06:17:26;;;;;;;6.25;2.63;;;6.80;99.90;;;;;;6305914;22;20098;-80
2023/04/26 06:19:52;;;;;;;5.60;3.25;;;6.90;99.90;;;;;;6333451;22;20474;-80
2023/04/26 06:22:18;;;;;;;7.80;2.88;;;6.90;99.90;;;;;;6305789;22;20406;-80
2023/04/26 06:24:43;;;;;;;7.60;3.65;;;6.80;99.90;;;;;;6306008;22;20025;-80
2023/04/26 06:27:09;;;;;;;5.53;3.30;;;6.90;99.90;;;;;;6305616;22;20548;-79
2023/04/26 06:29:35;;;;;;;6.20;2.70;;;6.90;99.90;;;;;;6305835;22;20018;-78
2023/04/26 06:32:01;;;;;;;3.30;2.53;;;7.00;99.90;;;;;;6279976;22;20050;-80
2023/04/26 06:34:26;;;;;;;7.40;2.80;;;6.90;99.90;;;;;;6305816;22;20034;-80
2023/04/26 06:36:52;;;;;;;4.35;3.33;;;6.90;99.90;;;;;;6305943;22;20119;-80
2023/04/26 06:39:18;;;;;;;4.95;2.67;;;7.00;99.90;;;;;;6280190;22;20054;-80
2023/04/26 06:41:44;;;;;;;3.63;2.55;;;7.00;99.90;;;;;;6305722;22;20056;-80
2023/04/26 06:44:10;;;;;;;3.83;2.90;;;7.00;99.90;;;;;;6333900;22;20319;-80
2023/04/26 06:46:36;;;;;;;4.65;2.40;;;7.20;99.90;;;;;;6305778;22;20427;-80
2023/04/26 06:49:02;;;;;;;5.82;2.70;;;7.30;99.90;;;;;;6334063;22;20011;-80
2023/04/26 06:51:28;;;;;;;6.45;2.90;;;7.40;99.90;;;;;;6306323;22;20161;-80
2023/04/26 06:53:57;;;;;;;8.05;2.78;;;7.40;99.90;;;;;;6306438;22;20030;-80
2023/04/26 06:56:23;;;;;;;5.20;2.55;;;7.40;99.90;;;;;;6306192;22;20076;-80
2023/04/26 06:59:03;;;;;;;4.72;2.30;;;7.40;99.90;;;;;;6333904;22;20476;-80
2023/04/26 07:01:32;;;;;;;5.13;2.78;;;7.60;99.90;;;;;;6305256;22;20029;-80
2023/04/26 07:04:00;;;;;;;3.17;2.42;;;7.60;99.90;;;;;;6331612;22;20022;-79
2023/04/26 07:06:26;;;;;;;5.90;2.38;;;7.70;99.90;;;;;;6304860;22;20070;-78
2023/04/26 07:08:52;;;;;;;4.05;2.05;;;7.70;99.90;;;;;;6301344;22;20354;-78
2023/04/26 07:11:18;;;;;;;4.57;1.98;;;7.80;99.90;;;;;;6304680;22;20752;-79
2023/04/26 07:13:44;;;;;;;3.30;2.40;;;7.80;99.90;;;;;;6304939;22;20063;-79
2023/04/26 07:16:09;;;;;;;3.03;2.33;;;8.00;99.90;;;;;;6304520;22;20348;-78
2023/04/26 07:18:35;;;;;;;5.22;1.90;;;8.00;99.90;;;;;;6332664;22;20010;-78
2023/04/26 07:21:01;;;;;;;7.30;2.58;;;8.20;99.90;;;;;;6304788;22;20552;-79
2023/04/26 07:23:28;;;;;;;6.22;2.22;;;8.20;99.90;;;;;;6305286;22;20033;-79
2023/04/26 07:25:54;;;;;;;3.10;2.30;;;8.20;99.90;;;;;;6304562;22;20019;-78
2023/04/26 07:28:20;;;;;;;4.68;2.20;;;8.30;99.90;;;;;;6305185;22;20404;-79
2023/04/26 07:30:45;;;;;;;3.80;1.85;;;8.40;99.90;;;;;;6332131;22;20023;-78
2023/04/26 07:33:11;;;;;;;5.32;2.30;;;8.40;99.90;;;;;;6305191;22;20080;-78
2023/04/26 07:35:37;;;;;;;4.80;2.38;;;8.50;99.90;;;;;;6279338;22;20482;-78
2023/04/26 07:38:03;;;;;;;7.65;2.10;;;8.60;99.90;;;;;;6305294;22;20027;-78
2023/04/26 07:40:30;;;;;;;5.82;2.28;;;8.50;99.90;;;;;;6333017;22;20023;-79
2023/04/26 07:42:55;;;;;;;3.55;2.20;;;8.60;99.90;;;;;;6304978;22;20664;-79
2023/04/26 07:45:21;;;;;;;2.97;2.08;;;8.50;99.90;;;;;;6332923;22;20029;-79
2023/04/26 07:47:47;;;;;;;6.78;2.00;;;8.60;99.90;;;;;;6332630;22;20014;-78
2023/04/26 07:50:12;;;;;;;6.75;2.42;;;8.70;99.90;;;;;;6304977;22;20037;-79
2023/04/26 07:52:39;;;;;;;3.78;1.65;;;8.80;99.90;;;;;;6305072;22;20023;-79
2023/04/26 07:55:05;;;;;;;1.92;1.83;;;8.90;99.90;;;;;;6332501;22;20443;-80
2023/04/26 07:57:31;;;;;;;4.22;1.88;;;8.90;99.90;;;;;;6304921;22;20019;-78
2023/04/26 07:59:57;;;;;;;5.50;1.67;;;8.90;99.90;;;;;;6332845;22;20387;-78
2023/04/26 08:02:23;;;;;;;3.55;1.95;;;9.00;99.90;;;;;;6304558;22;20044;-77
2023/04/26 08:04:54;;;;;;;2.35;1.80;;;9.10;99.90;;;;;;6304637;22;20114;-78
2023/04/26 08:07:20;;;;;;;3.78;2.10;;;9.10;99.90;;;;;;6304709;22;20015;-77
2023/04/26 08:09:46;;;;;;;3.30;2.20;;;9.10;99.90;;;;;;6304762;22;20596;-78
2023/04/26 08:12:12;;;;;;;3.50;1.98;;;9.20;99.90;;;;;;6304987;22;20026;-78
2023/04/26 08:14:38;;;;;;;3.92;2.15;;;9.20;99.90;;;;;;6304295;22;20023;-77
2023/04/26 08:17:05;;;;;;;8.27;2.95;;;9.30;99.90;;;;;;6305716;22;20044;-79
2023/04/26 08:19:32;;;;;;;3.40;1.80;;;9.20;99.90;;;;;;6281383;22;20094;-79
2023/04/26 08:21:58;;;;;;;6.88;2.15;;;9.30;99.90;;;;;;6306182;22;20019;-79
2023/04/26 08:24:24;;;;;;;4.13;1.75;;;9.30;99.90;;;;;;6306632;22;20015;-79
2023/04/26 08:26:50;;;;;;;3.88;1.67;;;9.40;99.90;;;;;;6306522;22;20049;-78
2023/04/26 08:29:16;;;;;;;4.68;2.28;;;9.30;99.90;;;;;;6334874;22;20095;-78
2023/04/26 08:31:41;;;;;;;5.90;2.10;;;9.30;99.90;;;;;;6306662;22;20018;-77
2023/04/26 08:34:12;;;;;;;5.13;2.30;;;9.40;99.90;;;;;;6303731;22;20465;-76
2023/04/26 08:36:38;;;;;;;2.00;1.73;;;9.40;99.90;;;;;;6306258;22;20021;-81
2023/04/26 08:39:04;;;;;;;1.98;1.88;;;9.40;99.90;;;;;;6306796;22;20072;-81
2023/04/26 08:41:35;;;;;;;3.53;1.80;;;9.50;99.90;;;;;;6280258;22;20063;-80
2023/04/26 08:44:04;;;;;;;3.13;1.80;;;9.50;99.90;;;;;;6306614;22;20015;-78
2023/04/26 08:46:37;;;;;;;4.70;2.25;;;9.50;99.90;;;;;;6307172;22;20015;-78
2023/04/26 08:49:22;;;;;;;;;;;9.50;99.90;;;;;;6335271;22;20093;-77
2023/04/26 08:51:50;;;;;;;4.75;2.55;;;9.60;99.90;;;;;;6307586;22;19944;-78
2023/04/26 08:54:18;;;;;;;4.82;1.88;;;9.60;99.90;;;;;;6280957;22;20101;-78
2023/04/26 08:56:45;;;;;;;4.63;1.75;;;9.70;99.90;;;;;;6306668;22;20026;-78
2023/04/26 08:59:12;;;;;;;2.78;1.88;;;9.60;99.90;;;;;;6306874;22;20050;-78
2023/04/26 09:01:42;;;;;;;14.38;3.45;;;9.60;99.90;;;;;;6280803;22;20026;-78
2023/04/26 09:04:08;;;;;;;4.43;2.75;;;9.40;99.90;;;;;;6306915;22;20086;-78
2023/04/26 09:06:36;;;;;;;3.90;2.25;;;9.40;99.90;;;;;;6334570;22;20109;-78
2023/04/26 09:09:09;;;;;;;2.53;2.08;;;9.30;99.90;;;;;;6306702;22;20018;-78
2023/04/26 09:11:58;;;;;;;4.28;3.22;;;9.20;99.90;;;;;;6306489;22;20046;-78
2023/04/26 09:14:25;;;;;;;4.85;2.25;;;9.20;99.90;;;;;;6306926;22;20456;-78
2023/04/26 09:16:51;;;;;;;6.28;3.03;;;9.10;99.90;;;;;;6334492;22;20023;-78
2023/04/26 09:19:33;;;;;;;9.55;2.30;;;9.20;99.90;;;;;;6306799;22;20342;-78
2023/04/26 09:21:59;;;;;;;11.35;2.17;;;9.20;99.90;;;;;;6334177;22;20033;-78
2023/04/26 09:24:25;;;;;;;3.88;2.03;;;9.00;99.90;;;;;;6334671;22;20015;-78
2023/04/26 09:27:01;;;;;;;7.30;2.20;;;8.90;99.90;;;;;;6334588;22;20023;-77
2023/04/26 09:29:27;;;;;;;3.22;2.20;;;9.00;99.90;;;;;;6334715;22;20019;-78
2023/04/26 09:31:53;;;;;;;5.65;2.70;;;8.90;99.90;;;;;;6334628;22;20022;-77
2023/04/26 09:34:18;;;;;;;2.80;1.98;;;9.00;99.90;;;;;;6306674;22;20113;-78
2023/04/26 09:36:52;;;;;;;3.90;2.30;;;9.00;99.90;;;;;;6280913;22;20454;-78
2023/04/26 09:39:40;;;;;;;3.35;2.00;;;9.00;99.90;;;;;;6334466;22;20018;-78
2023/04/26 09:42:12;;;;;;;5.43;2.90;;;9.10;99.90;;;;;;6306622;22;20026;-78
2023/04/26 09:44:38;;;;;;;4.13;2.53;;;9.20;99.90;;;;;;6306778;22;20111;-78
2023/04/26 09:47:09;;;;;;;4.32;2.80;;;9.20;99.90;;;;;;6306807;22;20430;-78
2023/04/26 09:49:50;;;;;;;4.80;2.58;;;9.10;99.90;;;;;;6306811;22;20094;-77
2023/04/26 09:52:19;;;;;;;6.20;3.85;;;9.20;99.90;;;;;;6306757;22;20457;-78
2023/04/26 09:54:52;;;;;;;7.97;2.25;;;9.20;99.90;;;;;;6306303;22;20026;-78
2023/04/26 09:57:18;;;;;;;5.22;2.03;;;9.20;99.90;;;;;;6306818;22;20019;-78
2023/04/26 09:59:50;;;;;;;5.78;2.38;;;9.30;99.90;;;;;;6306514;22;20076;-78
2023/04/26 10:02:26;;;;;;;4.30;2.10;;;9.40;99.90;;;;;;6306067;22;20351;-77
2023/04/26 10:04:54;;;;;;;3.50;2.55;;;9.50;99.90;;;;;;6334362;22;20061;-78
2023/04/26 10:07:21;;;;;;;5.80;2.28;;;9.70;99.90;;;;;;6306411;22;20022;-77
2023/04/26 10:09:48;;;;;;;4.05;2.05;;;9.70;99.90;;;;;;6333987;22;20041;-77
2023/04/26 10:12:16;;;;;;;2.40;1.60;;;9.70;99.90;;;;;;6334908;22;20140;-78
2023/04/26 10:14:45;;;;;;;3.55;2.03;;;9.80;99.90;;;;;;6307662;22;20023;-77
2023/04/26 10:17:11;;;;;;;4.35;1.90;;;9.80;99.90;;;;;;6280963;22;20015;-77
2023/04/26 10:19:40;;;;;;;2.72;2.22;;;9.80;99.90;;;;;;6280853;22;20026;-78
2023/04/26 10:22:18;;;;;;;3.33;1.80;;;9.80;99.90;;;;;;6305875;22;20022;-78
2023/04/26 10:24:44;;;;;;;3.83;1.90;;;9.90;99.90;;;;;;6306354;22;20552;-78
2023/04/26 10:27:10;;;;;;;1.55;1.45;;;10.00;99.90;;;;;;6306086;22;20026;-78
2023/04/26 10:29:54;;;;;;;3.90;1.90;;;10.30;99.90;;;;;;6280326;22;20030;-77
2023/04/26 10:32:21;;;;;;;3.28;1.95;;;10.40;99.90;;;;;;6333876;22;20023;-77
2023/04/26 10:35:13;;;;;;;3.70;2.03;;;10.50;99.90;;;;;;6306152;22;20328;-78
2023/04/26 10:38:02;;;;;;;6.63;2.17;;;10.50;99.90;;;;;;6305627;22;20023;-78
2023/04/26 10:40:32;;;;;;;3.67;1.73;;;10.60;99.90;;;;;;6313417;22;20023;-78
2023/04/26 10:43:10;;;;;;;2.05;1.70;;;10.50;99.90;;;;;;6305843;22;20027;-78
2023/04/26 10:45:38;;;;;;;2.08;1.90;;;10.50;99.90;;;;;;6306039;22;20102;-78
2023/04/26 10:48:22;;;;;;;2.40;1.98;;;10.60;99.90;;;;;;6334113;22;20046;-78
2023/04/26 10:51:00;;;;;;;5.57;1.80;;;10.60;99.90;;;;;;6305820;22;20113;-78
2023/04/26 10:53:30;;;;;;;6.55;2.00;;;10.60;99.90;;;;;;6305569;22;20679;-78
2023/04/26 10:55:56;;;;;;;11.52;2.95;;;10.60;99.90;;;;;;6305826;22;20616;-78
2023/04/26 10:58:33;;;;;;;3.30;2.08;;;10.30;99.90;;;;;;6333636;22;20042;-78
2023/04/26 11:01:16;;;;;;;5.25;2.40;;;10.40;99.90;;;;;;6305861;22;20030;-78
2023/04/26 11:03:42;;;;;;;;;;;10.10;99.90;;;;;;6280605;22;20058;-78
2023/04/26 11:06:12;;;;;;;9.70;3.13;;;10.10;99.90;;;;;;6279792;22;19949;-78
2023/04/26 11:08:38;;;;;;;6.38;2.17;;;10.00;99.90;;;;;;6280044;22;20065;-77
2023/04/26 11:11:04;;;;;;;3.00;1.90;;;9.90;99.90;;;;;;6305985;22;20015;-78
2023/04/26 11:13:30;;;;;;;5.45;2.58;;;9.90;99.90;;;;;;6305944;22;20029;-78
2023/04/26 11:16:04;;;;;;;3.45;2.15;;;9.70;99.90;;;;;;6305821;22;20097;-78
2023/04/26 11:18:31;;;;;;;3.72;2.03;;;9.70;99.90;;;;;;6305936;22;20037;-78
2023/04/26 11:20:57;;;;;;;4.60;2.58;;;9.70;99.90;;;;;;6305489;22;20037;-78
2023/04/26 11:23:25;;;;;;;6.47;2.53;;;9.80;99.90;;;;;;6305381;22;20023;-78
2023/04/26 11:25:50;;;;;;;2.83;2.08;;;9.60;99.90;;;;;;6333791;22;20315;-77
2023/04/26 11:28:18;;;;;;;5.03;2.17;;;9.70;99.90;;;;;;6305720;22;20029;-78
2023/04/26 11:30:43;;;;;;;2.15;1.98;;;9.70;99.90;;;;;;6305843;22;20080;-78
2023/04/26 11:33:21;;;;;;;3.83;1.92;;;9.80;99.90;;;;;;6305525;22;20035;-78
2023/04/26 11:35:47;;;;;;;2.47;2.13;;;9.70;99.90;;;;;;6305446;22;20022;-79
2023/04/26 11:38:12;;;;;;;3.47;1.85;;;9.70;99.90;;;;;;6333584;22;20094;-79
2023/04/26 11:40:41;;;;;;;3.63;2.30;;;9.80;99.90;;;;;;6333601;22;20143;-78
2023/04/26 11:43:08;;;;;;;4.32;2.28;;;9.80;99.90;;;;;;6305896;22;20018;-79
2023/04/26 11:45:36;;;;;;;1.83;1.70;;;9.80;99.90;;;;;;6306015;22;20053;-79
2023/04/26 11:48:04;;;;;;;3.90;2.45;;;9.90;99.90;;;;;;6306107;22;20018;-79
2023/04/26 11:50:32;;;;;;;3.78;1.90;;;9.90;99.90;;;;;;6305949;22;20019;-78
2023/04/26 11:53:00;;;;;;;2.83;2.08;;;10.00;99.90;;;;;;6282058;22;20459;-79
2023/04/26 11:55:33;;;;;;;2.58;1.92;;;10.10;99.90;;;;;;6335582;22;20028;-78
2023/04/26 11:58:02;;;;;;;2.25;2.03;;;10.20;99.90;;;;;;6307692;22;20109;-79
2023/04/26 12:00:27;;;;;;;3.05;1.90;;;10.30;99.90;;;;;;6335349;22;20457;-78
2023/04/26 12:02:54;;;;;;;5.20;2.55;;;10.40;99.90;;;;;;6335408;22;20019;-78
2023/04/26 12:05:25;;;;;;;2.42;2.05;;;10.40;99.90;;;;;;6335372;22;20399;-78
2023/04/26 12:07:54;;;;;;;3.70;2.03;;;10.50;99.90;;;;;;6307847;22;20147;-78
2023/04/26 12:10:24;;;;;;;6.10;2.63;;;10.60;99.90;;;;;;6307309;22;20022;-78
2023/04/26 12:12:51;;;;;;;7.85;1.90;;;10.70;99.90;;;;;;6308059;22;20018;-78
2023/04/26 12:15:18;;;;;;;9.65;2.65;;;10.90;99.90;;;;;;6281479;22;20089;-78
2023/04/26 12:17:59;;;;;;;2.70;1.90;;;10.90;99.90;;;;;;6307563;22;20617;-78
2023/04/26 12:20:30;;;;;;;3.30;2.15;;;10.90;99.90;;;;;;6335173;22;20093;-78
2023/04/26 12:22:57;;;;;;;2.95;1.73;;;10.90;99.90;;;;;;6306894;22;20022;-78
2023/04/26 12:25:23;;;;;;;2.95;2.00;;;10.90;99.90;;;;;;6307096;22;20025;-78
2023/04/26 12:27:48;;;;;;;3.15;1.90;;;10.80;99.90;;;;;;6334986;22;20023;-78
2023/04/26 12:30:15;;;;;;;3.05;2.10;;;10.80;99.90;;;;;;6307187;22;20054;-78
2023/04/26 12:32:40;;;;;;;4.53;1.92;;;10.70;99.90;;;;;;6335002;22;20025;-78
2023/04/26 12:35:06;;;;;;;6.63;2.92;;;10.70;99.90;;;;;;6306891;22;20022;-78
2023/04/26 12:37:32;;;;;;;4.97;2.40;;;10.70;99.90;;;;;;6335162;22;20090;-79
2023/04/26 12:39:58;;;;;;;4.97;2.30;;;10.60;99.90;;;;;;6335256;22;20380;-79
2023/04/26 12:42:24;;;;;;;4.90;2.45;;;10.50;99.90;;;;;;6335004;22;20022;-79
2023/04/26 12:44:49;;;;;;;3.83;1.75;;;10.40;99.90;;;;;;6281459;22;20030;-78
2023/04/26 12:47:15;;;;;;;2.25;1.83;;;10.50;99.90;;;;;;6307091;22;20097;-79
2023/04/26 12:49:41;;;;;;;3.42;2.40;;;10.30;99.90;;;;;;6307024;22;20019;-78
2023/04/26 12:52:06;;;;;;;2.67;2.35;;;10.40;99.90;;;;;;6281089;22;20022;-79
2023/04/26 12:54:32;;;;;;;5.93;2.28;;;10.30;99.90;;;;;;6334618;22;20030;-78
2023/04/26 12:56:58;;;;;;;2.40;1.90;;;10.20;99.90;;;;;;6334884;22;20019;-78